Time;durP1;ratioP1;P1;durP2;ratioP2;P2;SDS_P1;SDS_P2;PMS_P1;PMS_P2;Temp;Humidity;BMP_temperature;BMP_pressure;BME280_temperature;BME280_humidity;BME280_pressure;Samples;Min_cycle;Max_cycle;Signal;HPM_P1;HPM_P2
2022/07/14 00:01:41;;;;;;;23.23;2.60;;;;;;;23.32;52.86;99528.28;7309208;19;129617;-38
2022/07/14 00:04:07;;;;;;;28.88;2.67;;;;;;;23.31;53.34;99526.63;7310289;19;129080;-38
2022/07/14 00:06:33;;;;;;;35.75;3.40;;;;;;;23.31;52.87;99531.03;7311718;19;129823;-38
2022/07/14 00:08:59;;;;;;;44.50;4.53;;;;;;;23.31;53.62;99521.38;7301191;19;131060;-39
2022/07/14 00:11:24;;;;;;;70.93;6.60;;;;;;;23.31;53.48;99531.03;7296736;19;130552;-38
2022/07/14 00:13:50;;;;;;;78.93;6.80;;;;;;;23.32;53.19;99528.28;7297068;19;130676;-36
2022/07/14 00:16:15;;;;;;;73.00;6.60;;;;;;;23.31;52.84;99526.63;7295949;19;130305;-37
2022/07/14 00:18:44;;;;;;;79.70;7.28;;;;;;;23.31;53.42;99529.25;7297056;19;129914;-39
2022/07/14 00:21:13;;;;;;;37.60;3.28;;;;;;;23.32;54.59;99530.09;7310345;19;131633;-38
2022/07/14 00:23:40;;;;;;;28.02;3.13;;;;;;;23.30;53.17;99525.00;7312754;19;129049;-38
2022/07/14 00:26:06;;;;;;;33.05;3.35;;;;;;;23.30;53.67;99524.16;7311533;19;129471;-38
2022/07/14 00:28:32;;;;;;;32.65;3.25;;;;;;;23.31;52.91;99525.81;7311086;19;129549;-37
2022/07/14 00:31:03;;;;;;;31.17;2.83;;;;;;;23.32;53.63;99528.28;7290992;19;130308;-37
2022/07/14 00:33:30;;;;;;;28.50;2.83;;;;;;;23.31;53.45;99526.63;7309077;19;129295;-39
2022/07/14 00:35:55;;;;;;;30.08;3.17;;;;;;;23.31;52.99;99531.88;7310690;19;129081;-37
2022/07/14 00:38:20;;;;;;;33.47;3.13;;;;;;;23.33;53.61;99523.84;7309964;19;130391;-38
2022/07/14 00:40:46;;;;;;;31.07;3.23;;;;;;;23.32;53.82;99530.09;7310618;19;130200;-39
2022/07/14 00:43:11;;;;;;;131.07;11.75;;;;;;;23.32;53.88;99523.03;7295587;19;131124;-38
2022/07/14 00:45:36;;;;;;;23.55;2.78;;;;;;;23.33;54.00;99529.09;7300782;19;129323;-39
2022/07/14 00:48:02;;;;;;;39.97;3.88;;;;;;;23.32;53.72;99533.50;7310572;19;130109;-37
2022/07/14 00:50:27;;;;;;;35.15;3.42;;;;;;;23.33;53.59;99529.09;7305060;19;130830;-38
2022/07/14 00:52:53;;;;;;;35.55;3.17;;;;;;;23.31;53.29;99524.00;7306095;19;129691;-38
2022/07/14 00:55:19;;;;;;;38.17;3.58;;;;;;;23.32;53.23;99530.88;7309329;19;129336;-37
2022/07/14 00:57:46;;;;;;;22.57;3.13;;;;;;;23.32;53.78;99523.03;7308657;19;130224;-38
2022/07/14 01:00:14;;;;;;;58.42;5.22;;;;;;;23.32;54.30;99538.75;7306815;19;130121;-38
2022/07/14 01:02:40;;;;;;;70.93;6.57;;;;;;;23.33;53.72;99529.94;7300112;19;130208;-36
2022/07/14 01:05:06;;;;;;;;;;;;;;;23.37;55.50;99536.50;7298719;19;130669;-38
2022/07/14 01:07:32;;;;;;;72.85;6.93;;;;;;;23.25;53.58;99522.78;7297524;19;131220;-35
2022/07/14 01:09:57;;;;;;;65.05;6.30;;;;;;;23.35;53.77;99541.09;7294549;19;130922;-38
2022/07/14 01:12:23;;;;;;;81.88;7.55;;;;;;;23.34;54.03;99541.25;7295353;19;130566;-37
2022/07/14 01:14:49;;;;;;;25.60;2.83;;;;;;;23.34;54.15;99539.44;7313461;19;129078;-39
2022/07/14 01:17:14;;;;;;;23.27;2.53;;;;;;;23.35;53.35;99538.50;7317694;19;131418;-38
2022/07/14 01:19:39;;;;;;;36.80;3.83;;;;;;;23.35;53.85;99546.34;7316153;19;130184;-37
2022/07/14 01:22:05;;;;;;;29.35;3.03;;;;;;;23.36;53.46;99539.28;7315121;19;129205;-39
2022/07/14 01:24:31;;;;;;;48.30;4.78;;;;;;;23.36;54.21;99545.38;7317061;19;130397;-39
2022/07/14 01:26:57;;;;;;;56.00;5.30;;;;;;;23.36;54.11;99545.38;7316835;19;129964;-39
2022/07/14 01:29:23;;;;;;;18.73;2.60;;;;;;;23.36;53.70;99545.38;7315193;19;130027;-39
2022/07/14 01:31:48;;;;;;;25.85;3.05;;;;;;;23.38;54.45;99547.84;7315324;19;129785;-38
2022/07/14 01:34:14;;;;;;;19.80;2.53;;;;;;;23.39;53.93;99549.50;7317440;19;129961;-35
2022/07/14 01:36:39;;;;;;;27.83;3.07;;;;;;;23.37;53.96;99547.00;7316711;19;130796;-38
2022/07/14 01:39:06;;;;;;;29.88;3.33;;;;;;;23.37;53.72;99536.50;7317273;19;129629;-39
2022/07/14 01:41:32;;;;;;;;;;;;;;;23.43;55.33;99548.19;7313651;19;129463;-39
2022/07/14 01:43:58;;;;;;;29.02;3.20;;;;;;;23.37;53.89;99544.38;7311737;19;130427;-38
2022/07/14 01:46:23;;;;;;;37.38;3.63;;;;;;;23.39;54.28;99555.56;7315914;19;130149;-39
2022/07/14 01:48:49;;;;;;;28.98;3.35;;;;;;;23.39;54.28;99554.75;7314272;19;130442;-37
2022/07/14 01:51:15;;;;;;;28.52;3.03;;;;;;;23.38;53.66;99556.53;7312794;19;129324;-38
2022/07/14 01:53:41;;;;;;;19.73;2.70;;;;;;;23.37;54.01;99557.50;7316304;19;129107;-39
2022/07/14 01:56:08;;;;;;;45.15;4.30;;;;;;;23.38;54.06;99563.56;7315310;19;130263;-38
2022/07/14 01:58:33;;;;;;;;;;;;;;;23.40;55.25;99559.84;7316496;19;131847;-38
2022/07/14 02:03:44;;;;;;;35.72;3.72;;;;;;;23.27;53.57;99543.63;7315824;19;130225;-40
2022/07/14 02:06:10;;;;;;;42.72;4.50;;;;;;;23.36;54.11;99566.34;7314333;19;130272;-38
2022/07/14 02:08:35;;;;;;;57.13;5.35;;;;;;;23.38;53.77;99560.94;7313762;19;131236;-39
2022/07/14 02:13:45;;;;;;;212.75;19.20;;;;;;;23.37;53.60;99567.19;7301536;19;130000;-35
2022/07/14 02:16:10;;;;;;;37.25;3.80;;;;;;;23.38;54.32;99574.91;7307747;19;130187;-39
2022/07/14 02:18:36;;;;;;;39.05;4.07;;;;;;;23.38;54.06;99572.28;7313003;19;129582;-38
2022/07/14 02:21:01;;;;;;;33.47;3.83;;;;;;;23.37;53.86;99567.19;7314849;19;128973;-39
2022/07/14 02:23:27;;;;;;;52.13;5.18;;;;;;;23.39;54.05;99566.03;7308926;19;129284;-38
2022/07/14 02:25:52;;;;;;;32.70;3.15;;;;;;;23.31;53.75;99555.50;7311372;19;129656;-38
2022/07/14 02:28:18;;;;;;;36.50;3.83;;;;;;;23.37;54.38;99573.25;7311864;19;131279;-38
2022/07/14 02:30:44;;;;;;;25.63;3.15;;;;;;;23.37;54.35;99573.25;7308077;19;129709;-39
2022/07/14 02:33:10;;;;;;;28.08;3.35;;;;;;;23.37;53.81;99583.72;7313557;19;130934;-38
2022/07/14 02:35:36;;;;;;;34.90;3.88;;;;;;;23.35;54.06;99580.47;7309020;19;129796;-38
2022/07/14 02:38:02;;;;;;;45.20;4.57;;;;;;;23.38;53.73;99584.56;7314149;19;129569;-38
2022/07/14 02:40:27;;;;;;;31.48;3.83;;;;;;;23.38;54.15;99576.69;7313601;19;129185;-39
2022/07/14 02:42:52;;;;;;;61.37;5.97;;;;;;;23.26;54.69;99552.47;7312190;19;128943;-39
2022/07/14 02:45:18;;;;;;;24.90;3.00;;;;;;;23.37;53.81;99570.63;7313937;19;129730;-38
2022/07/14 02:47:43;;;;;;;56.65;5.63;;;;;;;23.30;54.29;99553.84;7312945;19;129509;-38
2022/07/14 02:50:10;;;;;;;53.40;5.45;;;;;;;23.38;54.54;99569.66;7312239;19;129433;-38
2022/07/14 02:52:35;;;;;;;30.35;3.88;;;;;;;23.36;54.40;99561.09;7311260;19;129834;-36
2022/07/14 02:55:00;;;;;;;28.45;3.60;;;;;;;23.37;54.35;99562.75;7313208;19;129110;-37
2022/07/14 02:57:26;;;;;;;34.00;3.80;;;;;;;23.38;54.36;99569.66;7314107;19;129234;-38
2022/07/14 02:59:51;;;;;;;36.15;3.97;;;;;;;23.38;54.40;99582.78;7312718;19;128936;-39
2022/07/14 03:02:16;;;;;;;37.53;3.95;;;;;;;23.39;54.39;99573.91;7312482;19;129406;-38
2022/07/14 03:04:42;;;;;;;24.73;3.47;;;;;;;23.38;54.38;99577.53;7313414;19;129798;-40
2022/07/14 03:07:07;;;;;;;26.77;3.47;;;;;;;23.39;54.77;99576.53;7312684;19;129190;-38
2022/07/14 03:09:32;;;;;;;93.65;9.13;;;;;;;23.41;54.40;99579.00;7303159;19;131034;-39
2022/07/14 03:11:58;;;;;;;64.85;6.65;;;;;;;23.40;54.27;99587.88;7296508;19;129467;-38
2022/07/14 03:14:23;;;;;;;52.20;5.53;;;;;;;23.36;54.15;99576.84;7292668;19;130218;-38
2022/07/14 03:16:49;;;;;;;73.35;7.10;;;;;;;23.30;54.95;99572.22;7297200;19;130227;-39
2022/07/14 03:19:14;;;;;;;75.40;7.25;;;;;;;23.40;55.00;99578.22;7296939;19;130464;-36
2022/07/14 03:21:40;;;;;;;49.17;4.53;;;;;;;23.30;54.20;99564.34;7299112;19;130579;-38
2022/07/14 03:24:06;;;;;;;38.17;3.75;;;;;;;23.40;54.04;99587.88;7309830;19;130367;-38
2022/07/14 03:26:32;;;;;;;44.53;4.57;;;;;;;23.39;54.40;99592.28;7308590;19;131273;-35
2022/07/14 03:28:57;;;;;;;28.17;3.37;;;;;;;23.40;54.33;99588.69;7311631;19;128952;-36
2022/07/14 03:31:23;;;;;;;35.47;4.07;;;;;;;23.39;54.08;99584.41;7308095;19;129472;-36
2022/07/14 03:33:48;;;;;;;35.35;3.75;;;;;;;23.39;53.98;99586.22;7311817;19;129692;-36
2022/07/14 03:36:15;;;;;;;30.92;3.83;;;;;;;23.39;54.54;99586.22;7309792;19;129775;-37
2022/07/14 03:38:40;;;;;;;42.97;4.85;;;;;;;23.38;54.54;99588.03;7303617;19;129529;-38
2022/07/14 03:41:06;;;;;;;54.97;5.90;;;;;;;23.39;54.69;99597.53;7299231;19;130364;-38
2022/07/14 03:43:31;;;;;;;44.97;4.47;;;;;;;23.39;54.34;99594.91;7311739;19;129695;-37
2022/07/14 03:45:57;;;;;;;36.97;3.97;;;;;;;23.40;55.04;99591.31;7302744;19;129975;-38
2022/07/14 03:48:23;;;;;;;56.53;5.68;;;;;;;23.40;55.19;99586.06;7305442;19;129547;-39
2022/07/14 03:50:48;;;;;;;40.13;4.25;;;;;;;23.40;54.64;99588.69;7302336;19;129155;-37
2022/07/14 03:53:14;;;;;;;31.95;3.67;;;;;;;23.41;54.87;99594.75;7309061;19;130151;-37
2022/07/14 03:55:42;;;;;;;41.83;4.40;;;;;;;23.41;55.51;99589.50;7310925;19;129221;-36
2022/07/14 03:58:07;;;;;;;46.42;4.78;;;;;;;23.40;54.35;99587.88;7311659;19;129819;-36
2022/07/14 04:00:33;;;;;;;29.15;3.50;;;;;;;23.40;54.44;99593.94;7311358;19;128925;-38
2022/07/14 04:02:59;;;;;;;36.15;4.10;;;;;;;23.40;54.70;99609.69;7308799;19;129792;-37
2022/07/14 04:05:25;;;;;;;36.05;3.85;;;;;;;23.41;54.28;99615.75;7307472;19;130529;-37
2022/07/14 04:07:50;;;;;;;38.22;4.05;;;;;;;23.38;54.58;99616.88;7307916;19;130076;-38
2022/07/14 04:10:15;;;;;;;34.67;4.25;;;;;;;23.38;54.77;99610.81;7309410;19;129841;-37
2022/07/14 04:12:41;;;;;;;36.72;3.72;;;;;;;23.40;54.47;99614.09;7309079;19;130150;-35
2022/07/14 04:15:07;;;;;;;36.70;3.88;;;;;;;23.39;54.37;99625.59;7306030;19;130350;-37
2022/07/14 04:17:32;;;;;;;40.63;4.30;;;;;;;23.34;54.32;99620.78;7312004;19;128993;-37
2022/07/14 04:19:58;;;;;;;50.63;5.35;;;;;;;23.40;55.01;99630.69;7307084;19;129753;-36
2022/07/14 04:22:23;;;;;;;29.60;3.42;;;;;;;23.39;54.97;99613.28;7310647;19;129141;-36
2022/07/14 04:24:48;;;;;;;14.15;2.65;;;;;;;23.38;54.84;99616.88;7310156;19;130478;-38
2022/07/14 04:27:14;;;;;;;32.25;3.70;;;;;;;23.39;54.67;99629.00;7310703;19;129323;-39
2022/07/14 04:29:39;;;;;;;41.67;4.10;;;;;;;23.39;54.53;99623.78;7308904;19;129682;-38
2022/07/14 04:32:05;;;;;;;26.02;3.40;;;;;;;23.32;54.87;99612.22;7309840;19;129711;-39
2022/07/14 04:34:30;;;;;;;34.35;3.90;;;;;;;23.39;55.04;99623.78;7303043;19;129458;-38
2022/07/14 04:36:56;;;;;;;33.30;3.63;;;;;;;23.40;54.36;99620.19;7311394;19;129321;-38
2022/07/14 04:39:21;;;;;;;55.90;5.47;;;;;;;23.38;55.11;99621.31;7307264;19;129219;-35
2022/07/14 04:41:46;;;;;;;41.20;4.20;;;;;;;23.38;54.67;99614.25;7310203;19;130130;-39
2022/07/14 04:44:12;;;;;;;32.63;3.60;;;;;;;23.40;54.98;99612.31;7309844;19;129320;-39
2022/07/14 04:46:37;;;;;;;24.40;2.87;;;;;;;23.39;54.99;99600.16;7310721;19;129217;-38
2022/07/14 04:52:02;;;;;;;25.65;3.20;;;;;;;23.38;54.30;99611.63;7309427;19;129207;-39
2022/07/14 04:54:32;;;;;;;46.95;4.85;;;;;;;23.37;55.16;99620.47;7303873;19;131498;-38
2022/07/14 04:56:57;;;;;;;35.13;3.90;;;;;;;23.37;55.08;99620.47;7309884;19;129166;-39
2022/07/14 04:59:23;;;;;;;38.92;4.43;;;;;;;23.31;55.02;99621.06;7309111;19;129279;-38
2022/07/14 05:01:49;;;;;;;49.13;5.00;;;;;;;23.39;55.06;99634.25;7306076;19;130499;-37
2022/07/14 05:04:14;;;;;;;26.45;3.30;;;;;;;23.38;55.14;99632.63;7305611;19;130320;-38
2022/07/14 05:06:40;;;;;;;59.22;5.65;;;;;;;23.38;54.75;99630.00;7307544;19;130171;-38
2022/07/14 05:09:05;;;;;;;39.05;4.30;;;;;;;23.37;54.50;99630.97;7307710;19;129516;-38
2022/07/14 05:11:31;;;;;;;125.28;10.95;;;;;;;23.38;54.95;99629.16;7303738;19;129034;-36
2022/07/14 05:13:57;;;;;;;41.95;4.85;;;;;;;23.38;54.66;99642.28;7300108;19;131065;-37
2022/07/14 05:16:22;;;;;;;12.45;2.38;;;;;;;23.27;55.05;99624.97;7311549;19;129006;-39
2022/07/14 05:18:49;;;;;;;59.33;5.70;;;;;;;23.38;54.81;99631.78;7306982;19;130611;-37
2022/07/14 05:21:15;;;;;;;23.98;3.00;;;;;;;23.39;54.38;99634.25;7308226;19;129341;-39
2022/07/14 05:23:41;;;;;;;34.57;4.00;;;;;;;23.38;54.83;99640.50;7309449;19;130232;-38
2022/07/14 05:26:13;;;;;;;32.60;4.20;;;;;;;23.38;56.09;99640.50;7307341;19;129663;-38
2022/07/14 05:28:39;;;;;;;111.15;10.20;;;;;;;23.36;55.01;99641.59;7304371;19;130540;-38
2022/07/14 05:31:05;;;;;;;25.20;3.53;;;;;;;23.38;54.77;99658.03;7304203;19;131233;-39
2022/07/14 05:33:30;;;;;;;29.80;3.60;;;;;;;23.37;54.54;99653.78;7309462;19;129150;-39
2022/07/14 05:35:55;;;;;;;29.33;3.53;;;;;;;23.38;55.25;99656.25;7303792;19;129564;-39
2022/07/14 05:38:23;;;;;;;29.03;3.53;;;;;;;23.34;54.89;99647.00;7307154;19;129415;-38
2022/07/14 05:40:49;;;;;;;27.48;3.40;;;;;;;23.39;54.51;99649.22;7308421;19;130538;-39
2022/07/14 05:43:14;;;;;;;37.88;4.25;;;;;;;23.37;54.78;99644.06;7306266;19;129689;-38
2022/07/14 05:45:40;;;;;;;27.17;3.35;;;;;;;23.40;55.29;99650.84;7308444;19;129822;-39
2022/07/14 05:48:06;;;;;;;47.05;4.68;;;;;;;23.30;55.36;99636.97;7316237;19;128930;-39
2022/07/14 05:50:31;;;;;;;25.37;3.07;;;;;;;23.37;54.76;99651.94;7315080;19;129721;-39
2022/07/14 05:52:57;;;;;;;25.70;3.22;;;;;;;23.38;55.23;99669.34;7316379;19;130286;-38
2022/07/14 05:55:22;;;;;;;28.48;3.38;;;;;;;23.36;55.22;99663.44;7317941;19;129787;-39
2022/07/14 05:57:49;;;;;;;47.20;4.90;;;;;;;23.31;54.87;99655.19;7316625;19;129892;-40
2022/07/14 06:00:15;;;;;;;478.50;33.17;;;;;;;23.41;55.37;99669.06;5970143;19;10000357;-36
2022/07/14 06:02:41;;;;;;;23.92;3.10;;;;;;;23.40;55.05;99672.66;7240362;19;129398;-40
2022/07/14 06:05:07;;;;;;;26.03;3.57;;;;;;;23.39;55.28;99665.75;7312829;19;129554;-37
2022/07/14 06:07:33;;;;;;;50.63;5.20;;;;;;;23.39;54.56;99671.00;7314115;19;129574;-37
2022/07/14 06:09:58;;;;;;;67.25;6.57;;;;;;;23.41;54.62;99676.09;7306966;19;129886;-36
2022/07/14 06:12:24;;;;;;;45.63;4.63;;;;;;;23.40;54.65;99667.41;7309710;19;128953;-38
2022/07/14 06:14:49;;;;;;;30.52;3.42;;;;;;;23.41;54.62;99674.31;7309309;19;129631;-37
2022/07/14 06:17:15;;;;;;;31.57;3.77;;;;;;;23.41;55.11;99668.22;7308972;19;131913;-37
2022/07/14 06:19:41;;;;;;;94.57;8.52;;;;;;;23.40;54.44;99661.34;7310703;19;129156;-38
2022/07/14 06:22:07;;;;;;;49.85;4.72;;;;;;;23.40;55.45;99656.91;7310264;19;129864;-37
2022/07/14 06:24:35;;;;;;;26.63;3.03;;;;;;;23.39;55.36;99660.50;7316459;19;131302;-37
2022/07/14 06:27:01;;;;;;;38.67;4.55;;;;;;;23.38;55.31;99651.00;7314202;19;129216;-36
2022/07/14 06:29:26;;;;;;;39.65;4.15;;;;;;;23.39;54.65;99654.44;7314038;19;128978;-36
2022/07/14 06:31:55;;;;;;;48.72;4.70;;;;;;;23.32;54.46;99654.19;7304666;19;129900;-37
2022/07/14 06:34:21;;;;;;;32.45;3.60;;;;;;;23.27;55.41;99666.13;7312681;19;130595;-38
2022/07/14 06:36:46;;;;;;;39.30;4.05;;;;;;;23.16;55.05;99648.75;7312880;19;130167;-37
2022/07/14 06:39:13;;;;;;;35.47;3.95;;;;;;;23.25;55.03;99658.38;7310918;19;129474;-38
2022/07/14 06:41:38;;;;;;;;;;;;;;;23.28;57.13;99658.09;7303401;19;129474;-37
2022/07/14 06:44:04;;;;;;;40.83;4.30;;;;;;;23.33;55.27;99662.91;7311069;19;129199;-37
2022/07/14 06:46:32;;;;;;;28.03;3.10;;;;;;;23.38;55.85;99663.28;7314901;19;130225;-40
2022/07/14 06:48:57;;;;;;;732.35;57.30;;;;;;;23.43;55.78;99667.13;7213576;19;133780;-38
2022/07/14 06:51:24;;;;;;;32.55;3.60;;;;;;;23.48;55.38;99672.75;7305868;19;129782;-39
2022/07/14 06:53:49;;;;;;;33.37;3.53;;;;;;;23.50;55.01;99673.41;7209550;19;131497;-39
2022/07/14 06:56:15;;;;;;;38.30;3.85;;;;;;;23.49;55.35;99677.00;7313380;19;130834;-40
2022/07/14 06:58:40;;;;;;;44.10;4.20;;;;;;;23.53;55.40;99667.03;7311219;19;129632;-41
2022/07/14 07:01:06;;;;;;;28.55;3.78;;;;;;;23.61;55.57;99680.22;7311243;19;129131;-39
2022/07/14 07:03:31;;;;;;;37.47;3.97;;;;;;;23.61;55.42;99670.56;7312874;19;128991;-39
2022/07/14 07:08:41;;;;;;;23.80;2.88;;;;;;;23.64;55.49;99670.25;7312718;19;128937;-40
2022/07/14 07:11:06;;;;;;;35.17;3.78;;;;;;;23.66;55.23;99667.47;7309672;19;129131;-39
2022/07/14 07:13:32;;;;;;;121.43;9.70;;;;;;;23.66;55.39;99670.09;7307969;19;130029;-38
2022/07/14 07:15:57;;;;;;;40.85;3.90;;;;;;;23.56;55.34;99671.97;7309983;19;131461;-37
2022/07/14 07:18:23;;;;;;;36.55;4.03;;;;;;;23.61;55.26;99681.06;7311986;19;129498;-41
2022/07/14 07:20:48;;;;;;;28.73;3.13;;;;;;;23.54;55.18;99660.78;7313050;19;129015;-39
2022/07/14 07:23:13;;;;;;;14.77;2.33;;;;;;;23.64;55.97;99670.25;7304331;19;130163;-39
2022/07/14 07:25:39;;;;;;;40.95;4.10;;;;;;;23.62;55.89;99661.69;7309461;19;129568;-39
2022/07/14 07:28:05;;;;;;;41.50;4.15;;;;;;;23.65;55.90;99663.22;7310541;19;129474;-38
2022/07/14 07:30:30;;;;;;;28.13;3.33;;;;;;;23.63;55.75;99660.75;7308726;19;129062;-38
2022/07/14 07:32:56;;;;;;;36.00;3.38;;;;;;;23.64;56.04;99659.75;7311082;19;129593;-37
2022/07/14 07:35:22;;;;;;;22.43;2.93;;;;;;;23.65;55.73;99653.50;7313543;19;129619;-38
2022/07/14 07:37:47;;;;;;;38.80;4.07;;;;;;;23.65;55.74;99650.88;7309740;19;130194;-39
2022/07/14 07:40:14;;;;;;;24.20;2.90;;;;;;;23.63;56.14;99642.38;7311271;19;129069;-40
2022/07/14 07:42:40;;;;;;;17.55;2.53;;;;;;;23.65;55.24;99645.63;7311190;19;129414;-39
2022/07/14 07:45:07;;;;;;;32.15;3.47;;;;;;;23.61;56.21;99639.06;7312438;19;131463;-41
2022/07/14 07:47:33;;;;;;;26.25;3.30;;;;;;;23.63;56.07;99639.75;7313447;19;129254;-39
2022/07/14 07:49:59;;;;;;;42.85;4.50;;;;;;;23.63;56.00;99637.13;7309926;19;128857;-38
2022/07/14 07:52:24;;;;;;;39.60;4.20;;;;;;;23.65;55.56;99635.13;7307090;19;129442;-39
2022/07/14 07:54:50;;;;;;;24.88;3.30;;;;;;;23.63;56.01;99631.88;7311367;19;130415;-38
2022/07/14 07:57:15;;;;;;;28.63;2.97;;;;;;;23.64;55.81;99627.41;7308973;19;129804;-38
2022/07/14 07:59:41;;;;;;;29.05;3.03;;;;;;;23.64;55.49;99628.25;7310316;19;129769;-38
2022/07/14 08:02:06;;;;;;;32.87;3.17;;;;;;;23.63;56.06;99626.63;7310304;19;130165;-39
2022/07/14 08:04:33;;;;;;;28.20;2.90;;;;;;;23.62;56.07;99619.69;7313088;19;130386;-38
2022/07/14 08:06:59;;;;;;;46.20;4.38;;;;;;;23.57;55.65;99606.22;7312510;19;129431;-37
2022/07/14 08:09:24;;;;;;;25.48;2.88;;;;;;;23.61;56.06;99623.31;7310373;19;130599;-36
2022/07/14 08:11:49;;;;;;;32.20;3.30;;;;;;;23.59;55.82;99629.69;7308172;19;130864;-38
2022/07/14 08:16:59;;;;;;;31.77;3.33;;;;;;;23.57;55.89;99621.97;7310633;19;130124;-36
2022/07/14 08:19:26;;;;;;;36.23;3.57;;;;;;;23.58;56.27;99613.13;7304331;19;129707;-39
2022/07/14 08:21:51;;;;;;;30.27;3.15;;;;;;;23.57;55.50;99616.72;7309326;19;130982;-38
2022/07/14 08:24:20;;;;;;;40.37;4.13;;;;;;;23.58;56.24;99617.53;7308712;19;129608;-41
2022/07/14 08:26:46;;;;;;;40.45;3.80;;;;;;;23.56;55.64;99620.31;7309374;19;129218;-39
2022/07/14 08:29:12;;;;;;;112.88;10.18;;;;;;;23.56;55.67;99614.22;7304710;19;130335;-40
2022/07/14 08:31:38;;;;;;;35.83;3.40;;;;;;;23.55;55.95;99620.47;7305688;19;130132;-38
2022/07/14 08:34:03;;;;;;;34.05;3.70;;;;;;;23.54;56.09;99611.75;7310347;19;129726;-40
2022/07/14 08:36:29;;;;;;;33.23;3.57;;;;;;;23.54;56.15;99619.63;7310389;19;129337;-38
2022/07/14 08:38:55;;;;;;;37.23;3.90;;;;;;;23.51;56.12;99611.25;7307616;19;131034;-40
2022/07/14 08:41:20;;;;;;;40.65;3.70;;;;;;;23.53;55.60;99615.38;7309013;19;129498;-39
2022/07/14 08:43:48;;;;;;;40.63;3.92;;;;;;;23.53;55.99;99606.66;7310187;19;129888;-41
2022/07/14 08:46:15;;;;;;;31.58;3.13;;;;;;;23.52;55.77;99597.16;7312221;19;130438;-41
2022/07/14 08:48:40;;;;;;;36.63;3.90;;;;;;;23.51;56.22;99604.19;7309555;19;129658;-40
2022/07/14 08:51:06;;;;;;;15.57;2.27;;;;;;;23.52;55.99;99607.66;7306995;19;130488;-39
2022/07/14 08:53:33;;;;;;;25.33;2.87;;;;;;;23.51;56.06;99596.34;7309623;19;130409;-40
2022/07/14 08:55:59;;;;;;;46.30;4.53;;;;;;;23.53;55.82;99599.63;7310684;19;129080;-38
2022/07/14 08:58:25;;;;;;;33.83;3.38;;;;;;;23.43;55.89;99577.91;7303031;19;131643;-39
2022/07/14 09:00:51;;;;;;;32.63;3.17;;;;;;;23.51;55.71;99591.09;7308598;19;130161;-39
2022/07/14 09:03:16;;;;;;;26.02;2.95;;;;;;;23.52;56.22;99586.66;7305195;19;129852;-41
2022/07/14 09:05:44;;;;;;;27.83;2.97;;;;;;;23.52;55.92;99581.41;7310988;19;129499;-38
2022/07/14 09:08:11;;;;;;;32.08;3.50;;;;;;;23.51;55.53;99575.34;7309480;19;128937;-40
2022/07/14 09:10:38;;;;;;;24.90;2.85;;;;;;;23.51;56.39;99574.50;7308357;19;129186;-39
2022/07/14 09:13:09;;;;;;;;;;;;;;;23.55;57.56;99581.91;7309068;19;129270;-39
2022/07/14 09:15:44;;;;;;;23.90;2.80;;;;;;;23.54;56.21;99574.19;7310248;19;129626;-34
2022/07/14 09:18:12;;;;;;;36.42;3.78;;;;;;;23.52;56.22;99570.91;7310588;19;129408;-38
2022/07/14 09:20:38;;;;;;;28.58;3.28;;;;;;;23.50;55.98;99565.81;7309871;19;129570;-38
2022/07/14 09:23:05;;;;;;;30.73;3.15;;;;;;;23.50;56.01;99547.47;7314903;19;129532;-40
2022/07/14 09:25:34;;;;;;;40.77;3.83;;;;;;;23.50;56.39;99544.84;7317771;19;129416;-40
2022/07/14 09:28:01;;;;;;;32.83;3.42;;;;;;;23.50;56.54;99541.38;7317491;19;129464;-39
2022/07/14 09:30:27;;;;;;;23.33;2.70;;;;;;;23.49;55.72;99551.03;7313946;19;130182;-40
2022/07/14 09:33:10;;;;;;;26.67;2.67;;;;;;;23.46;57.17;99535.59;7315980;19;130687;-40
2022/07/14 09:35:36;;;;;;;23.83;2.63;;;;;;;23.50;55.95;99546.63;7310889;19;129637;-40
2022/07/14 09:38:14;;;;;;;37.60;3.90;;;;;;;23.50;57.57;99557.97;7316400;19;128873;-40
2022/07/14 09:40:39;;;;;;;50.65;4.68;;;;;;;23.51;56.24;99559.59;7310726;19;130179;-40
2022/07/14 09:43:06;;;;;;;32.08;3.30;;;;;;;23.49;55.79;99548.41;7314146;19;129653;-40
2022/07/14 09:45:36;;;;;;;25.83;2.78;;;;;;;23.50;56.79;99549.25;7316875;19;128892;-40
2022/07/14 09:48:07;;;;;;;25.55;2.78;;;;;;;23.51;56.26;99561.38;7316621;19;128997;-39
2022/07/14 09:50:42;;;;;;;24.70;2.45;;;;;;;23.46;57.04;99556.59;7314715;19;129118;-39
2022/07/14 09:53:11;;;;;;;21.70;2.38;;;;;;;23.48;56.91;99570.41;7314644;19;129638;-40
2022/07/14 09:55:39;;;;;;;25.67;2.67;;;;;;;23.47;56.14;99573.19;7317328;19;129218;-39
2022/07/14 09:58:05;;;;;;;36.30;3.67;;;;;;;23.50;55.93;99571.06;7315872;19;129234;-37
2022/07/14 10:00:31;;;;;;;23.52;2.53;;;;;;;23.49;55.92;99558.06;7316225;19;129493;-40
2022/07/14 10:02:58;;;;;;;23.67;2.40;;;;;;;23.50;56.43;99557.97;7312999;19;130491;-36
2022/07/14 10:05:25;;;;;;;27.63;2.67;;;;;;;23.39;56.03;99545.06;7316090;19;128941;-38
2022/07/14 10:07:51;;;;;;;50.65;4.40;;;;;;;23.48;55.92;99561.69;7314529;19;128992;-38
2022/07/14 10:10:16;;;;;;;21.93;2.50;;;;;;;23.48;55.79;99567.78;7314680;19;129115;-40
2022/07/14 10:12:42;;;;;;;28.50;2.90;;;;;;;23.49;56.33;99573.81;7314948;19;129656;-39
2022/07/14 10:15:10;;;;;;;15.45;1.95;;;;;;;23.48;56.14;99574.81;7316401;19;129418;-40
2022/07/14 10:17:37;;;;;;;21.58;2.42;;;;;;;23.49;56.08;99566.78;7315316;19;129359;-39
2022/07/14 10:20:06;;;;;;;39.50;3.63;;;;;;;23.49;56.01;99561.53;7313167;19;130838;-40
2022/07/14 10:22:32;;;;;;;25.42;2.60;;;;;;;23.50;56.01;99568.44;7314944;19;130980;-41
2022/07/14 10:24:57;;;;;;;16.27;2.20;;;;;;;23.50;56.54;99560.56;7314900;19;130827;-40
2022/07/14 10:27:25;;;;;;;31.65;3.08;;;;;;;23.47;56.15;99565.31;7314724;19;129076;-40
2022/07/14 10:29:56;;;;;;;35.65;3.38;;;;;;;23.50;56.91;99560.56;7310666;19;130276;-39
2022/07/14 10:39:16;;;;;;;44.75;5.13;;;;;;;23.40;56.90;99557.22;7346445;19;129100;-39
2022/07/14 10:42:23;;;;;;;30.50;3.78;;;;;;;23.37;57.56;99536.50;7339824;19;129327;-38
2022/07/14 10:44:50;;;;;;;15.68;2.63;;;;;;;23.33;56.06;99529.94;7343121;19;132923;-39
2022/07/14 10:47:17;;;;;;;65.55;6.43;;;;;;;23.20;56.41;99514.53;7343582;19;129663;-38
2022/07/14 10:50:02;;;;;;;;;;;;;;;23.33;58.32;99524.69;7332853;19;129461;-40
2022/07/14 10:52:30;;;;;;;17.63;2.33;;;;;;;23.29;55.95;99528.56;7347089;19;130994;-39
2022/07/14 10:55:15;;;;;;;39.13;4.15;;;;;;;23.26;58.24;99515.75;7339526;19;130233;-40
2022/07/14 10:57:59;;;;;;;9.73;1.55;;;;;;;23.24;58.12;99520.31;7346331;19;130447;-38
2022/07/14 11:00:47;;;;;;;26.65;3.08;;;;;;;23.13;58.65;99491.72;7345196;19;129336;-38
2022/07/14 11:03:39;;;;;;;16.67;2.17;;;;;;;23.19;58.30;99501.56;7346259;19;128824;-39
2022/07/14 11:06:08;;;;;;;32.05;3.30;;;;;;;23.20;56.35;99498.00;7342840;19;129919;-38
2022/07/14 11:08:36;;;;;;;19.67;2.42;;;;;;;23.19;56.97;99501.56;7345384;19;130286;-39
2022/07/14 11:11:04;;;;;;;24.40;2.78;;;;;;;23.18;56.80;99497.31;7341968;19;129754;-38
2022/07/14 11:13:30;;;;;;;18.75;2.28;;;;;;;23.18;56.97;99505.19;7344852;19;129186;-38
2022/07/14 11:16:03;;;;;;;31.30;3.35;;;;;;;23.17;58.29;99487.81;7344239;19;129148;-38
2022/07/14 11:18:35;;;;;;;26.38;3.10;;;;;;;23.15;57.36;99477.44;7341630;19;131208;-41
2022/07/14 11:21:06;;;;;;;29.33;3.40;;;;;;;23.16;57.08;99467.78;7344703;19;130194;-38
2022/07/14 11:23:35;;;;;;;40.92;4.15;;;;;;;23.06;57.07;99452.16;7342111;19;129582;-37
2022/07/14 11:26:04;;;;;;;27.45;3.22;;;;;;;23.16;56.96;99459.94;7340318;19;130189;-39
2022/07/14 11:28:43;;;;;;;31.05;3.55;;;;;;;23.14;56.89;99464.50;7340838;19;130268;-37
2022/07/14 11:31:14;;;;;;;30.08;3.15;;;;;;;23.15;57.88;99468.78;7341260;19;129442;-41
2022/07/14 11:36:33;;;;;;;31.30;3.35;;;;;;;23.16;56.41;99462.53;7342125;19;128989;-38
2022/07/14 11:39:16;;;;;;;95.68;9.73;;;;;;;23.15;58.82;99458.28;7338069;19;129340;-40
2022/07/14 11:41:45;;;;;;;21.20;2.50;;;;;;;23.17;56.36;99461.59;7343835;19;129093;-40